sensor_id;sensor_type;location;lat;lon;timestamp;P1;durP1;ratioP1;P2;durP2;ratioP2
49840;SDS011;35738;49.890;5.930;2023-01-31T00:01:33;31.93;;;6.53;;
49840;SDS011;35738;49.890;5.930;2023-01-31T00:04:02;28.70;;;6.63;;
49840;SDS011;35738;49.890;5.930;2023-01-31T00:06:31;27.63;;;6.37;;
49840;SDS011;35738;49.890;5.930;2023-01-31T00:09:00;30.70;;;6.77;;
49840;SDS011;35738;49.890;5.930;2023-01-31T00:11:28;31.93;;;6.40;;
49840;SDS011;35738;49.890;5.930;2023-01-31T00:13:59;23.03;;;6.43;;
49840;SDS011;35738;49.890;5.930;2023-01-31T00:16:27;33.20;;;6.97;;
49840;SDS011;35738;49.890;5.930;2023-01-31T00:18:54;29.87;;;6.80;;
49840;SDS011;35738;49.890;5.930;2023-01-31T00:21:24;29.80;;;6.23;;
49840;SDS011;35738;49.890;5.930;2023-01-31T00:23:52;27.57;;;6.13;;
49840;SDS011;35738;49.890;5.930;2023-01-31T00:28:48;32.33;;;6.80;;
49840;SDS011;35738;49.890;5.930;2023-01-31T00:31:17;28.03;;;6.37;;
49840;SDS011;35738;49.890;5.930;2023-01-31T00:33:47;31.37;;;6.47;;
49840;SDS011;35738;49.890;5.930;2023-01-31T00:36:15;28.03;;;6.63;;
49840;SDS011;35738;49.890;5.930;2023-01-31T00:38:43;36.27;;;6.83;;
49840;SDS011;35738;49.890;5.930;2023-01-31T00:41:10;26.73;;;6.20;;
49840;SDS011;35738;49.890;5.930;2023-01-31T00:43:37;21.70;;;5.73;;
49840;SDS011;35738;49.890;5.930;2023-01-31T00:46:04;28.83;;;5.80;;
49840;SDS011;35738;49.890;5.930;2023-01-31T00:48:31;27.23;;;6.33;;
49840;SDS011;35738;49.890;5.930;2023-01-31T00:51:01;35.60;;;6.67;;
49840;SDS011;35738;49.890;5.930;2023-01-31T00:53:28;32.70;;;6.93;;
49840;SDS011;35738;49.890;5.930;2023-01-31T00:55:59;29.70;;;6.10;;
49840;SDS011;35738;49.890;5.930;2023-01-31T00:58:28;30.10;;;6.27;;
49840;SDS011;35738;49.890;5.930;2023-01-31T01:00:55;30.80;;;6.43;;
49840;SDS011;35738;49.890;5.930;2023-01-31T01:03:22;26.57;;;5.97;;
49840;SDS011;35738;49.890;5.930;2023-01-31T01:05:48;30.83;;;7.03;;
49840;SDS011;35738;49.890;5.930;2023-01-31T01:08:15;30.27;;;6.53;;
49840;SDS011;35738;49.890;5.930;2023-01-31T01:10:42;26.70;;;5.67;;
49840;SDS011;35738;49.890;5.930;2023-01-31T01:13:08;29.90;;;6.40;;
49840;SDS011;35738;49.890;5.930;2023-01-31T01:15:38;20.97;;;5.63;;
49840;SDS011;35738;49.890;5.930;2023-01-31T01:18:04;31.40;;;6.53;;
49840;SDS011;35738;49.890;5.930;2023-01-31T01:20:32;28.97;;;6.33;;
49840;SDS011;35738;49.890;5.930;2023-01-31T01:23:00;27.53;;;6.40;;
49840;SDS011;35738;49.890;5.930;2023-01-31T01:25:27;29.53;;;6.47;;
49840;SDS011;35738;49.890;5.930;2023-01-31T01:27:53;24.67;;;6.50;;
49840;SDS011;35738;49.890;5.930;2023-01-31T01:30:20;34.27;;;6.37;;
49840;SDS011;35738;49.890;5.930;2023-01-31T01:32:46;31.17;;;6.20;;
49840;SDS011;35738;49.890;5.930;2023-01-31T01:35:13;29.70;;;6.23;;
49840;SDS011;35738;49.890;5.930;2023-01-31T01:37:40;25.63;;;6.17;;
49840;SDS011;35738;49.890;5.930;2023-01-31T01:40:07;29.50;;;6.60;;
49840;SDS011;35738;49.890;5.930;2023-01-31T01:42:34;31.13;;;6.53;;
49840;SDS011;35738;49.890;5.930;2023-01-31T01:45:02;26.47;;;6.33;;
49840;SDS011;35738;49.890;5.930;2023-01-31T01:47:52;35.50;;;6.20;;
49840;SDS011;35738;49.890;5.930;2023-01-31T01:50:31;26.27;;;6.17;;
49840;SDS011;35738;49.890;5.930;2023-01-31T01:53:37;36.47;;;5.87;;
49840;SDS011;35738;49.890;5.930;2023-01-31T01:55:59;29.60;;;5.80;;
49840;SDS011;35738;49.890;5.930;2023-01-31T01:58:32;31.67;;;5.87;;
49840;SDS011;35738;49.890;5.930;2023-01-31T02:01:13;30.43;;;6.27;;
49840;SDS011;35738;49.890;5.930;2023-01-31T02:03:42;32.03;;;6.37;;
49840;SDS011;35738;49.890;5.930;2023-01-31T02:06:11;36.70;;;5.97;;
49840;SDS011;35738;49.890;5.930;2023-01-31T02:08:38;33.07;;;6.17;;
49840;SDS011;35738;49.890;5.930;2023-01-31T02:11:09;35.73;;;6.60;;
49840;SDS011;35738;49.890;5.930;2023-01-31T02:13:42;22.23;;;6.10;;
49840;SDS011;35738;49.890;5.930;2023-01-31T02:16:12;31.53;;;6.17;;
49840;SDS011;35738;49.890;5.930;2023-01-31T02:18:38;30.13;;;5.33;;
49840;SDS011;35738;49.890;5.930;2023-01-31T02:27:06;30.10;;;5.87;;
49840;SDS011;35738;49.890;5.930;2023-01-31T02:40:45;29.50;;;5.03;;
49840;SDS011;35738;49.890;5.930;2023-01-31T02:46:57;19.23;;;5.30;;
49840;SDS011;35738;49.890;5.930;2023-01-31T02:49:35;23.80;;;4.60;;
49840;SDS011;35738;49.890;5.930;2023-01-31T02:54:43;27.03;;;5.20;;
49840;SDS011;35738;49.890;5.930;2023-01-31T02:57:39;23.13;;;4.60;;
49840;SDS011;35738;49.890;5.930;2023-01-31T03:00:07;18.93;;;5.00;;
49840;SDS011;35738;49.890;5.930;2023-01-31T03:02:35;23.37;;;4.43;;
49840;SDS011;35738;49.890;5.930;2023-01-31T03:05:02;21.03;;;4.80;;
49840;SDS011;35738;49.890;5.930;2023-01-31T03:07:32;25.67;;;4.97;;
49840;SDS011;35738;49.890;5.930;2023-01-31T03:15:52;26.67;;;5.30;;
49840;SDS011;35738;49.890;5.930;2023-01-31T03:18:52;25.80;;;5.43;;
49840;SDS011;35738;49.890;5.930;2023-01-31T03:21:33;25.87;;;4.87;;
49840;SDS011;35738;49.890;5.930;2023-01-31T03:24:05;28.53;;;5.13;;
49840;SDS011;35738;49.890;5.930;2023-01-31T03:26:36;28.60;;;4.70;;
49840;SDS011;35738;49.890;5.930;2023-01-31T03:29:03;21.07;;;5.37;;
49840;SDS011;35738;49.890;5.930;2023-01-31T03:31:34;22.43;;;4.93;;
49840;SDS011;35738;49.890;5.930;2023-01-31T03:34:08;34.43;;;5.80;;
49840;SDS011;35738;49.890;5.930;2023-01-31T03:36:39;28.10;;;4.80;;
49840;SDS011;35738;49.890;5.930;2023-01-31T03:39:32;32.23;;;5.17;;
49840;SDS011;35738;49.890;5.930;2023-01-31T03:42:11;22.27;;;4.93;;
49840;SDS011;35738;49.890;5.930;2023-01-31T03:47:32;28.07;;;4.77;;
49840;SDS011;35738;49.890;5.930;2023-01-31T03:50:14;29.67;;;4.77;;
49840;SDS011;35738;49.890;5.930;2023-01-31T03:52:50;26.47;;;4.90;;
49840;SDS011;35738;49.890;5.930;2023-01-31T03:55:23;29.97;;;5.30;;
49840;SDS011;35738;49.890;5.930;2023-01-31T03:58:12;31.00;;;5.10;;
49840;SDS011;35738;49.890;5.930;2023-01-31T04:00:41;27.93;;;5.07;;
49840;SDS011;35738;49.890;5.930;2023-01-31T04:05:57;34.50;;;4.73;;
49840;SDS011;35738;49.890;5.930;2023-01-31T04:08:24;28.33;;;5.30;;
49840;SDS011;35738;49.890;5.930;2023-01-31T04:10:51;23.77;;;4.60;;
49840;SDS011;35738;49.890;5.930;2023-01-31T04:13:19;23.90;;;5.03;;
49840;SDS011;35738;49.890;5.930;2023-01-31T04:15:47;41.33;;;5.37;;
49840;SDS011;35738;49.890;5.930;2023-01-31T04:18:14;27.27;;;5.67;;
49840;SDS011;35738;49.890;5.930;2023-01-31T04:20:40;33.00;;;5.30;;
49840;SDS011;35738;49.890;5.930;2023-01-31T04:23:07;42.90;;;6.47;;
49840;SDS011;35738;49.890;5.930;2023-01-31T04:25:34;83.03;;;7.30;;
49840;SDS011;35738;49.890;5.930;2023-01-31T04:28:00;248.77;;;13.27;;
49840;SDS011;35738;49.890;5.930;2023-01-31T04:30:27;238.57;;;13.07;;
49840;SDS011;35738;49.890;5.930;2023-01-31T04:32:54;287.27;;;14.60;;
49840;SDS011;35738;49.890;5.930;2023-01-31T04:35:20;295.10;;;14.03;;
49840;SDS011;35738;49.890;5.930;2023-01-31T04:37:47;330.03;;;17.60;;
49840;SDS011;35738;49.890;5.930;2023-01-31T04:40:14;406.10;;;17.53;;
49840;SDS011;35738;49.890;5.930;2023-01-31T04:42:40;491.93;;;20.83;;
49840;SDS011;35738;49.890;5.930;2023-01-31T04:45:07;356.90;;;16.53;;
49840;SDS011;35738;49.890;5.930;2023-01-31T04:47:34;370.57;;;16.03;;
49840;SDS011;35738;49.890;5.930;2023-01-31T04:50:01;380.30;;;16.63;;
49840;SDS011;35738;49.890;5.930;2023-01-31T04:52:27;308.83;;;13.37;;
49840;SDS011;35738;49.890;5.930;2023-01-31T04:54:54;355.67;;;16.43;;
49840;SDS011;35738;49.890;5.930;2023-01-31T04:57:20;355.77;;;16.63;;
49840;SDS011;35738;49.890;5.930;2023-01-31T04:59:47;390.70;;;17.70;;
49840;SDS011;35738;49.890;5.930;2023-01-31T05:02:15;466.80;;;20.90;;
49840;SDS011;35738;49.890;5.930;2023-01-31T05:04:43;386.77;;;17.67;;
49840;SDS011;35738;49.890;5.930;2023-01-31T05:07:09;252.47;;;11.43;;
49840;SDS011;35738;49.890;5.930;2023-01-31T05:09:36;280.27;;;13.57;;
49840;SDS011;35738;49.890;5.930;2023-01-31T05:12:02;433.63;;;17.93;;
49840;SDS011;35738;49.890;5.930;2023-01-31T05:14:30;358.10;;;15.60;;
49840;SDS011;35738;49.890;5.930;2023-01-31T05:16:57;324.20;;;15.37;;
49840;SDS011;35738;49.890;5.930;2023-01-31T05:19:24;301.77;;;14.73;;
49840;SDS011;35738;49.890;5.930;2023-01-31T05:21:51;257.37;;;18.90;;
49840;SDS011;35738;49.890;5.930;2023-01-31T05:24:21;328.50;;;17.43;;
49840;SDS011;35738;49.890;5.930;2023-01-31T05:26:48;379.47;;;18.67;;
49840;SDS011;35738;49.890;5.930;2023-01-31T05:29:17;438.63;;;18.57;;
49840;SDS011;35738;49.890;5.930;2023-01-31T05:31:44;393.40;;;19.27;;
49840;SDS011;35738;49.890;5.930;2023-01-31T05:34:11;313.47;;;17.17;;
49840;SDS011;35738;49.890;5.930;2023-01-31T05:36:43;338.10;;;17.80;;
49840;SDS011;35738;49.890;5.930;2023-01-31T05:39:10;306.93;;;19.13;;
49840;SDS011;35738;49.890;5.930;2023-01-31T05:41:36;470.30;;;22.13;;
49840;SDS011;35738;49.890;5.930;2023-01-31T05:44:03;361.27;;;18.17;;
49840;SDS011;35738;49.890;5.930;2023-01-31T05:46:30;342.37;;;19.73;;
49840;SDS011;35738;49.890;5.930;2023-01-31T05:48:57;348.90;;;18.23;;
49840;SDS011;35738;49.890;5.930;2023-01-31T05:51:23;421.83;;;19.37;;
49840;SDS011;35738;49.890;5.930;2023-01-31T05:53:50;531.73;;;22.83;;
49840;SDS011;35738;49.890;5.930;2023-01-31T05:56:17;439.00;;;22.57;;
49840;SDS011;35738;49.890;5.930;2023-01-31T05:58:43;388.60;;;20.33;;
49840;SDS011;35738;49.890;5.930;2023-01-31T06:01:16;399.13;;;22.73;;
49840;SDS011;35738;49.890;5.930;2023-01-31T06:03:43;353.60;;;19.60;;
49840;SDS011;35738;49.890;5.930;2023-01-31T06:06:11;275.80;;;18.40;;
49840;SDS011;35738;49.890;5.930;2023-01-31T06:08:38;201.73;;;13.53;;
49840;SDS011;35738;49.890;5.930;2023-01-31T06:11:05;83.93;;;11.87;;
49840;SDS011;35738;49.890;5.930;2023-01-31T06:13:32;43.27;;;9.97;;
49840;SDS011;35738;49.890;5.930;2023-01-31T06:16:01;33.63;;;9.67;;
49840;SDS011;35738;49.890;5.930;2023-01-31T06:18:28;40.03;;;9.77;;
49840;SDS011;35738;49.890;5.930;2023-01-31T06:20:54;34.37;;;9.00;;
49840;SDS011;35738;49.890;5.930;2023-01-31T06:23:21;32.80;;;9.47;;
49840;SDS011;35738;49.890;5.930;2023-01-31T06:25:48;39.37;;;9.87;;
49840;SDS011;35738;49.890;5.930;2023-01-31T06:28:17;32.20;;;9.07;;
49840;SDS011;35738;49.890;5.930;2023-01-31T06:30:44;36.70;;;10.30;;
49840;SDS011;35738;49.890;5.930;2023-01-31T06:33:11;37.93;;;10.03;;
49840;SDS011;35738;49.890;5.930;2023-01-31T06:35:38;33.10;;;9.83;;
49840;SDS011;35738;49.890;5.930;2023-01-31T06:38:05;23.80;;;8.90;;
49840;SDS011;35738;49.890;5.930;2023-01-31T06:40:32;39.07;;;9.67;;
49840;SDS011;35738;49.890;5.930;2023-01-31T06:43:01;33.60;;;9.90;;
49840;SDS011;35738;49.890;5.930;2023-01-31T06:45:27;33.83;;;9.77;;
49840;SDS011;35738;49.890;5.930;2023-01-31T06:47:54;21.97;;;7.30;;
49840;SDS011;35738;49.890;5.930;2023-01-31T06:50:21;31.00;;;8.33;;
49840;SDS011;35738;49.890;5.930;2023-01-31T06:52:48;23.37;;;8.40;;
49840;SDS011;35738;49.890;5.930;2023-01-31T06:55:14;26.13;;;8.17;;
49840;SDS011;35738;49.890;5.930;2023-01-31T06:57:45;26.27;;;7.87;;
49840;SDS011;35738;49.890;5.930;2023-01-31T07:00:15;26.63;;;7.87;;
49840;SDS011;35738;49.890;5.930;2023-01-31T07:02:44;26.53;;;8.20;;
49840;SDS011;35738;49.890;5.930;2023-01-31T07:05:12;28.70;;;7.60;;
49840;SDS011;35738;49.890;5.930;2023-01-31T07:07:39;23.03;;;7.60;;
49840;SDS011;35738;49.890;5.930;2023-01-31T07:10:06;25.50;;;7.57;;
49840;SDS011;35738;49.890;5.930;2023-01-31T07:12:32;25.00;;;7.57;;
49840;SDS011;35738;49.890;5.930;2023-01-31T07:14:59;22.93;;;7.43;;
49840;SDS011;35738;49.890;5.930;2023-01-31T07:17:26;24.03;;;7.40;;
49840;SDS011;35738;49.890;5.930;2023-01-31T07:19:52;26.93;;;7.90;;
49840;SDS011;35738;49.890;5.930;2023-01-31T07:22:19;26.00;;;8.23;;
49840;SDS011;35738;49.890;5.930;2023-01-31T07:24:46;28.03;;;8.20;;
49840;SDS011;35738;49.890;5.930;2023-01-31T07:27:14;28.30;;;8.00;;
49840;SDS011;35738;49.890;5.930;2023-01-31T07:29:41;22.27;;;7.77;;
49840;SDS011;35738;49.890;5.930;2023-01-31T07:32:09;28.13;;;8.10;;
49840;SDS011;35738;49.890;5.930;2023-01-31T07:34:36;30.43;;;7.70;;
49840;SDS011;35738;49.890;5.930;2023-01-31T07:37:03;25.17;;;7.47;;
49840;SDS011;35738;49.890;5.930;2023-01-31T07:39:29;19.27;;;7.03;;
49840;SDS011;35738;49.890;5.930;2023-01-31T07:41:56;19.23;;;7.23;;
49840;SDS011;35738;49.890;5.930;2023-01-31T07:44:23;24.43;;;7.97;;
49840;SDS011;35738;49.890;5.930;2023-01-31T07:46:51;27.33;;;7.33;;
49840;SDS011;35738;49.890;5.930;2023-01-31T07:49:19;20.63;;;8.23;;
49840;SDS011;35738;49.890;5.930;2023-01-31T07:51:46;26.30;;;8.20;;
49840;SDS011;35738;49.890;5.930;2023-01-31T07:54:13;24.83;;;8.10;;
49840;SDS011;35738;49.890;5.930;2023-01-31T07:56:39;26.30;;;7.83;;
49840;SDS011;35738;49.890;5.930;2023-01-31T07:59:06;23.90;;;7.67;;
49840;SDS011;35738;49.890;5.930;2023-01-31T08:01:33;25.03;;;7.80;;
49840;SDS011;35738;49.890;5.930;2023-01-31T08:04:18;24.37;;;8.17;;
49840;SDS011;35738;49.890;5.930;2023-01-31T08:06:48;20.87;;;7.97;;
49840;SDS011;35738;49.890;5.930;2023-01-31T08:09:16;24.67;;;8.80;;
49840;SDS011;35738;49.890;5.930;2023-01-31T08:11:42;30.27;;;8.87;;
49840;SDS011;35738;49.890;5.930;2023-01-31T08:14:09;22.30;;;8.57;;
49840;SDS011;35738;49.890;5.930;2023-01-31T08:16:36;23.33;;;9.13;;
49840;SDS011;35738;49.890;5.930;2023-01-31T08:19:03;23.27;;;8.47;;
49840;SDS011;35738;49.890;5.930;2023-01-31T08:21:30;27.73;;;9.20;;
49840;SDS011;35738;49.890;5.930;2023-01-31T08:23:58;26.93;;;8.90;;
49840;SDS011;35738;49.890;5.930;2023-01-31T08:26:25;24.50;;;8.40;;
49840;SDS011;35738;49.890;5.930;2023-01-31T08:28:51;30.20;;;8.47;;
49840;SDS011;35738;49.890;5.930;2023-01-31T08:31:23;23.70;;;8.30;;
49840;SDS011;35738;49.890;5.930;2023-01-31T08:33:51;19.70;;;8.17;;
49840;SDS011;35738;49.890;5.930;2023-01-31T08:38:49;25.30;;;8.93;;
49840;SDS011;35738;49.890;5.930;2023-01-31T08:41:17;25.53;;;8.87;;
49840;SDS011;35738;49.890;5.930;2023-01-31T08:43:44;30.73;;;9.10;;
49840;SDS011;35738;49.890;5.930;2023-01-31T08:46:22;24.43;;;9.27;;
49840;SDS011;35738;49.890;5.930;2023-01-31T08:48:50;22.93;;;8.27;;
49840;SDS011;35738;49.890;5.930;2023-01-31T08:51:17;24.60;;;8.07;;
49840;SDS011;35738;49.890;5.930;2023-01-31T08:53:44;24.07;;;8.50;;
49840;SDS011;35738;49.890;5.930;2023-01-31T08:56:12;25.17;;;8.77;;
49840;SDS011;35738;49.890;5.930;2023-01-31T08:58:39;24.50;;;7.63;;
49840;SDS011;35738;49.890;5.930;2023-01-31T09:01:12;23.20;;;8.47;;
49840;SDS011;35738;49.890;5.930;2023-01-31T09:03:40;16.47;;;7.10;;
49840;SDS011;35738;49.890;5.930;2023-01-31T09:06:15;28.03;;;7.70;;
49840;SDS011;35738;49.890;5.930;2023-01-31T09:08:44;24.83;;;8.77;;
49840;SDS011;35738;49.890;5.930;2023-01-31T09:11:11;35.97;;;8.30;;
49840;SDS011;35738;49.890;5.930;2023-01-31T09:13:42;31.27;;;7.33;;
49840;SDS011;35738;49.890;5.930;2023-01-31T09:16:11;31.80;;;7.50;;
49840;SDS011;35738;49.890;5.930;2023-01-31T09:18:39;227.63;;;17.27;;
49840;SDS011;35738;49.890;5.930;2023-01-31T09:21:08;52.80;;;9.50;;
49840;SDS011;35738;49.890;5.930;2023-01-31T09:23:42;173.43;;;14.03;;
49840;SDS011;35738;49.890;5.930;2023-01-31T09:26:10;136.30;;;12.07;;
49840;SDS011;35738;49.890;5.930;2023-01-31T09:28:37;260.40;;;17.03;;
49840;SDS011;35738;49.890;5.930;2023-01-31T09:31:09;197.30;;;14.03;;
49840;SDS011;35738;49.890;5.930;2023-01-31T09:33:38;394.40;;;20.47;;
49840;SDS011;35738;49.890;5.930;2023-01-31T09:36:08;367.40;;;20.17;;
49840;SDS011;35738;49.890;5.930;2023-01-31T09:38:36;543.40;;;26.27;;
49840;SDS011;35738;49.890;5.930;2023-01-31T09:41:04;327.87;;;19.83;;
49840;SDS011;35738;49.890;5.930;2023-01-31T09:43:40;556.93;;;28.33;;
49840;SDS011;35738;49.890;5.930;2023-01-31T09:46:15;261.17;;;16.57;;
49840;SDS011;35738;49.890;5.930;2023-01-31T09:48:45;125.13;;;12.50;;
49840;SDS011;35738;49.890;5.930;2023-01-31T09:51:15;334.60;;;18.53;;
49840;SDS011;35738;49.890;5.930;2023-01-31T09:53:43;632.83;;;30.50;;
49840;SDS011;35738;49.890;5.930;2023-01-31T09:59:16;647.33;;;30.50;;
49840;SDS011;35738;49.890;5.930;2023-01-31T10:02:10;218.23;;;13.93;;
49840;SDS011;35738;49.890;5.930;2023-01-31T10:13:21;30.13;;;8.97;;
49840;SDS011;35738;49.890;5.930;2023-01-31T10:16:08;30.50;;;8.80;;
49840;SDS011;35738;49.890;5.930;2023-01-31T10:18:56;27.20;;;8.90;;
49840;SDS011;35738;49.890;5.930;2023-01-31T10:21:31;24.43;;;7.67;;
49840;SDS011;35738;49.890;5.930;2023-01-31T10:24:17;34.67;;;8.33;;
49840;SDS011;35738;49.890;5.930;2023-01-31T10:26:55;31.73;;;8.00;;
49840;SDS011;35738;49.890;5.930;2023-01-31T10:29:40;100.13;;;12.07;;
49840;SDS011;35738;49.890;5.930;2023-01-31T10:32:17;50.80;;;8.93;;
49840;SDS011;35738;49.890;5.930;2023-01-31T10:37:49;83.50;;;11.13;;
49840;SDS011;35738;49.890;5.930;2023-01-31T10:40:40;27.87;;;8.60;;
49840;SDS011;35738;49.890;5.930;2023-01-31T10:43:21;56.07;;;10.57;;
49840;SDS011;35738;49.890;5.930;2023-01-31T10:45:57;56.87;;;8.93;;
49840;SDS011;35738;49.890;5.930;2023-01-31T10:48:26;35.87;;;8.77;;
49840;SDS011;35738;49.890;5.930;2023-01-31T10:56:49;33.77;;;8.83;;
49840;SDS011;35738;49.890;5.930;2023-01-31T10:59:25;43.40;;;9.70;;
49840;SDS011;35738;49.890;5.930;2023-01-31T11:02:01;33.23;;;9.23;;
49840;SDS011;35738;49.890;5.930;2023-01-31T11:04:29;59.23;;;9.87;;
49840;SDS011;35738;49.890;5.930;2023-01-31T11:06:59;99.47;;;11.83;;
49840;SDS011;35738;49.890;5.930;2023-01-31T11:09:28;43.37;;;9.80;;
49840;SDS011;35738;49.890;5.930;2023-01-31T11:12:00;56.07;;;10.60;;
49840;SDS011;35738;49.890;5.930;2023-01-31T11:14:28;58.30;;;10.77;;
49840;SDS011;35738;49.890;5.930;2023-01-31T11:17:00;22.73;;;7.50;;
49840;SDS011;35738;49.890;5.930;2023-01-31T11:19:35;16.40;;;7.37;;
49840;SDS011;35738;49.890;5.930;2023-01-31T11:22:03;23.73;;;8.10;;
49840;SDS011;35738;49.890;5.930;2023-01-31T11:24:31;25.33;;;8.60;;
49840;SDS011;35738;49.890;5.930;2023-01-31T11:29:46;29.37;;;9.33;;
49840;SDS011;35738;49.890;5.930;2023-01-31T11:32:22;28.43;;;8.73;;
49840;SDS011;35738;49.890;5.930;2023-01-31T11:34:59;25.10;;;8.33;;
49840;SDS011;35738;49.890;5.930;2023-01-31T11:37:32;25.20;;;9.53;;
49840;SDS011;35738;49.890;5.930;2023-01-31T11:40:01;23.47;;;9.37;;
49840;SDS011;35738;49.890;5.930;2023-01-31T11:42:56;21.37;;;8.50;;
49840;SDS011;35738;49.890;5.930;2023-01-31T11:45:31;26.17;;;9.10;;
49840;SDS011;35738;49.890;5.930;2023-01-31T11:51:01;28.73;;;8.70;;
49840;SDS011;35738;49.890;5.930;2023-01-31T11:53:30;31.87;;;8.13;;
49840;SDS011;35738;49.890;5.930;2023-01-31T11:56:13;29.43;;;8.17;;
49840;SDS011;35738;49.890;5.930;2023-01-31T11:58:43;26.83;;;9.07;;
49840;SDS011;35738;49.890;5.930;2023-01-31T12:03:47;29.23;;;9.60;;
49840;SDS011;35738;49.890;5.930;2023-01-31T12:09:04;25.17;;;9.07;;
49840;SDS011;35738;49.890;5.930;2023-01-31T12:14:18;22.77;;;9.10;;
49840;SDS011;35738;49.890;5.930;2023-01-31T12:16:45;41.17;;;9.43;;
49840;SDS011;35738;49.890;5.930;2023-01-31T12:21:48;27.53;;;8.97;;
49840;SDS011;35738;49.890;5.930;2023-01-31T12:24:43;35.93;;;9.30;;
49840;SDS011;35738;49.890;5.930;2023-01-31T12:30:16;38.53;;;9.17;;
49840;SDS011;35738;49.890;5.930;2023-01-31T12:33:28;56.97;;;9.33;;
49840;SDS011;35738;49.890;5.930;2023-01-31T12:41:06;29.97;;;7.17;;
49840;SDS011;35738;49.890;5.930;2023-01-31T12:44:04;33.97;;;7.60;;
49840;SDS011;35738;49.890;5.930;2023-01-31T12:49:52;61.77;;;9.00;;
49840;SDS011;35738;49.890;5.930;2023-01-31T12:55:35;100.87;;;11.37;;
49840;SDS011;35738;49.890;5.930;2023-01-31T13:01:45;12.93;;;6.40;;
49840;SDS011;35738;49.890;5.930;2023-01-31T13:07:15;17.07;;;6.20;;
49840;SDS011;35738;49.890;5.930;2023-01-31T13:09:44;13.03;;;6.00;;
49840;SDS011;35738;49.890;5.930;2023-01-31T13:12:19;10.57;;;6.07;;
49840;SDS011;35738;49.890;5.930;2023-01-31T13:15:01;11.80;;;6.27;;
49840;SDS011;35738;49.890;5.930;2023-01-31T13:17:32;11.17;;;6.20;;
49840;SDS011;35738;49.890;5.930;2023-01-31T13:22:43;9.60;;;5.07;;
49840;SDS011;35738;49.890;5.930;2023-01-31T13:25:14;8.80;;;4.47;;
49840;SDS011;35738;49.890;5.930;2023-01-31T13:27:58;7.43;;;4.87;;
49840;SDS011;35738;49.890;5.930;2023-01-31T13:32:55;7.37;;;5.13;;
49840;SDS011;35738;49.890;5.930;2023-01-31T13:38:02;6.37;;;3.87;;
49840;SDS011;35738;49.890;5.930;2023-01-31T13:40:45;6.93;;;4.47;;
49840;SDS011;35738;49.890;5.930;2023-01-31T13:43:17;5.27;;;4.20;;
49840;SDS011;35738;49.890;5.930;2023-01-31T13:46:07;5.33;;;4.13;;
49840;SDS011;35738;49.890;5.930;2023-01-31T13:51:46;4.00;;;3.60;;
49840;SDS011;35738;49.890;5.930;2023-01-31T13:54:27;6.27;;;3.93;;
49840;SDS011;35738;49.890;5.930;2023-01-31T13:56:57;5.17;;;4.10;;
49840;SDS011;35738;49.890;5.930;2023-01-31T13:59:27;6.53;;;4.30;;
49840;SDS011;35738;49.890;5.930;2023-01-31T14:01:57;4.77;;;3.80;;
49840;SDS011;35738;49.890;5.930;2023-01-31T14:04:30;4.80;;;4.13;;
49840;SDS011;35738;49.890;5.930;2023-01-31T14:09:36;8.03;;;4.70;;
49840;SDS011;35738;49.890;5.930;2023-01-31T14:22:22;34.83;;;6.20;;
49840;SDS011;35738;49.890;5.930;2023-01-31T14:35:23;80.70;;;8.23;;
49840;SDS011;35738;49.890;5.930;2023-01-31T14:38:23;369.87;;;21.43;;
49840;SDS011;35738;49.890;5.930;2023-01-31T14:44:15;227.50;;;14.07;;
49840;SDS011;35738;49.890;5.930;2023-01-31T14:52:04;585.20;;;31.97;;
49840;SDS011;35738;49.890;5.930;2023-01-31T14:57:20;654.07;;;34.10;;
49840;SDS011;35738;49.890;5.930;2023-01-31T15:05:00;427.73;;;22.10;;
49840;SDS011;35738;49.890;5.930;2023-01-31T15:07:29;327.70;;;16.00;;
49840;SDS011;35738;49.890;5.930;2023-01-31T15:09:56;420.57;;;22.67;;
49840;SDS011;35738;49.890;5.930;2023-01-31T15:15:23;241.80;;;14.67;;
49840;SDS011;35738;49.890;5.930;2023-01-31T15:18:02;404.27;;;21.83;;
49840;SDS011;35738;49.890;5.930;2023-01-31T15:20:42;368.83;;;20.67;;
49840;SDS011;35738;49.890;5.930;2023-01-31T15:23:18;348.80;;;21.83;;
49840;SDS011;35738;49.890;5.930;2023-01-31T15:25:50;690.03;;;34.63;;
49840;SDS011;35738;49.890;5.930;2023-01-31T15:28:21;205.80;;;15.30;;
49840;SDS011;35738;49.890;5.930;2023-01-31T15:30:53;529.57;;;25.67;;
49840;SDS011;35738;49.890;5.930;2023-01-31T15:39:15;338.37;;;18.90;;
49840;SDS011;35738;49.890;5.930;2023-01-31T15:41:46;368.83;;;22.53;;
49840;SDS011;35738;49.890;5.930;2023-01-31T15:44:17;454.50;;;25.57;;
49840;SDS011;35738;49.890;5.930;2023-01-31T15:46:53;315.87;;;19.13;;
49840;SDS011;35738;49.890;5.930;2023-01-31T15:52:19;118.20;;;10.67;;
49840;SDS011;35738;49.890;5.930;2023-01-31T15:54:50;194.83;;;15.80;;
49840;SDS011;35738;49.890;5.930;2023-01-31T15:57:17;69.03;;;9.60;;
49840;SDS011;35738;49.890;5.930;2023-01-31T15:59:45;15.60;;;6.17;;
49840;SDS011;35738;49.890;5.930;2023-01-31T16:02:21;15.23;;;7.13;;
49840;SDS011;35738;49.890;5.930;2023-01-31T16:04:54;14.17;;;6.53;;
49840;SDS011;35738;49.890;5.930;2023-01-31T16:07:22;9.03;;;6.13;;
49840;SDS011;35738;49.890;5.930;2023-01-31T16:09:54;11.27;;;5.73;;
49840;SDS011;35738;49.890;5.930;2023-01-31T16:12:23;11.57;;;7.03;;
49840;SDS011;35738;49.890;5.930;2023-01-31T16:14:51;12.63;;;6.47;;
49840;SDS011;35738;49.890;5.930;2023-01-31T16:17:25;8.63;;;6.17;;
49840;SDS011;35738;49.890;5.930;2023-01-31T16:19:53;9.73;;;6.60;;
49840;SDS011;35738;49.890;5.930;2023-01-31T16:22:27;7.00;;;5.43;;
49840;SDS011;35738;49.890;5.930;2023-01-31T16:24:59;18.43;;;10.27;;
49840;SDS011;35738;49.890;5.930;2023-01-31T16:27:28;9.83;;;6.43;;
49840;SDS011;35738;49.890;5.930;2023-01-31T16:29:58;10.17;;;6.03;;
49840;SDS011;35738;49.890;5.930;2023-01-31T16:32:30;8.43;;;6.17;;
49840;SDS011;35738;49.890;5.930;2023-01-31T16:35:02;11.27;;;6.10;;
49840;SDS011;35738;49.890;5.930;2023-01-31T16:39:59;9.50;;;6.23;;
49840;SDS011;35738;49.890;5.930;2023-01-31T16:42:28;11.80;;;6.63;;
49840;SDS011;35738;49.890;5.930;2023-01-31T16:44:56;11.23;;;7.53;;
49840;SDS011;35738;49.890;5.930;2023-01-31T16:47:30;10.80;;;6.37;;
49840;SDS011;35738;49.890;5.930;2023-01-31T16:52:43;14.97;;;9.20;;
49840;SDS011;35738;49.890;5.930;2023-01-31T16:55:13;7.77;;;5.70;;
49840;SDS011;35738;49.890;5.930;2023-01-31T16:57:44;13.07;;;8.00;;
49840;SDS011;35738;49.890;5.930;2023-01-31T17:02:50;18.43;;;11.40;;
49840;SDS011;35738;49.890;5.930;2023-01-31T17:05:21;25.63;;;9.93;;
49840;SDS011;35738;49.890;5.930;2023-01-31T17:07:55;27.57;;;10.77;;
49840;SDS011;35738;49.890;5.930;2023-01-31T17:10:24;36.53;;;11.40;;
49840;SDS011;35738;49.890;5.930;2023-01-31T17:12:58;33.30;;;8.47;;
49840;SDS011;35738;49.890;5.930;2023-01-31T17:15:34;102.90;;;12.67;;
49840;SDS011;35738;49.890;5.930;2023-01-31T17:18:01;17.90;;;9.17;;
49840;SDS011;35738;49.890;5.930;2023-01-31T17:20:27;57.10;;;11.00;;
49840;SDS011;35738;49.890;5.930;2023-01-31T17:22:54;37.10;;;9.40;;
49840;SDS011;35738;49.890;5.930;2023-01-31T17:25:33;14.73;;;8.33;;
49840;SDS011;35738;49.890;5.930;2023-01-31T17:28:03;11.47;;;8.03;;
49840;SDS011;35738;49.890;5.930;2023-01-31T17:30:31;19.87;;;9.70;;
49840;SDS011;35738;49.890;5.930;2023-01-31T17:32:59;15.67;;;9.03;;
49840;SDS011;35738;49.890;5.930;2023-01-31T17:35:37;15.23;;;9.63;;
49840;SDS011;35738;49.890;5.930;2023-01-31T17:38:08;13.20;;;8.33;;